createdAt,value
2019-03-15T00:01:08.831Z,5.17
2019-03-15T00:03:40.617Z,5.18
2019-03-15T00:06:12.211Z,5.20
2019-03-15T00:08:43.649Z,5.22
2019-03-15T00:11:15.302Z,5.18
2019-03-15T00:13:46.886Z,5.27
2019-03-15T00:16:18.599Z,5.20
2019-03-15T00:18:50.192Z,5.21
2019-03-15T00:21:21.946Z,5.25
2019-03-15T00:23:53.451Z,5.25
2019-03-15T00:26:25.989Z,5.24
2019-03-15T00:28:58.683Z,5.23
2019-03-15T00:31:31.271Z,5.17
2019-03-15T00:34:02.654Z,5.14
2019-03-15T00:36:33.901Z,5.19
2019-03-15T00:39:06.664Z,5.17
2019-03-15T00:41:38.226Z,5.17
2019-03-15T00:44:09.785Z,5.14
2019-03-15T00:46:41.394Z,5.14
2019-03-15T00:49:12.769Z,5.12
2019-03-15T00:51:44.392Z,5.08
2019-03-15T00:54:16.160Z,5.08
2019-03-15T00:56:47.742Z,5.06
2019-03-15T00:59:19.317Z,5.04
2019-03-15T01:01:50.766Z,5.06
2019-03-15T01:04:22.442Z,5.11
2019-03-15T01:06:54.222Z,5.06
2019-03-15T01:09:26.019Z,5.09
2019-03-15T01:11:57.785Z,5.07
2019-03-15T01:14:29.451Z,5.10
2019-03-15T01:17:01.326Z,5.06
2019-03-15T01:19:32.772Z,5.07
2019-03-15T01:22:04.393Z,5.08
2019-03-15T01:24:36.082Z,5.12
2019-03-15T01:27:07.619Z,5.12
2019-03-15T01:29:39.171Z,5.08
2019-03-15T01:32:10.515Z,5.09
2019-03-15T01:34:42.313Z,5.07
2019-03-15T01:37:13.901Z,5.08
2019-03-15T01:39:45.545Z,5.05
2019-03-15T01:42:17.407Z,5.04
2019-03-15T01:44:49.061Z,5.06
2019-03-15T01:47:20.615Z,5.10
2019-03-15T01:49:52.123Z,5.13
2019-03-15T01:52:23.692Z,5.15
2019-03-15T01:54:55.275Z,5.08
2019-03-15T01:57:26.756Z,5.15
2019-03-15T01:59:58.223Z,5.12
2019-03-15T02:02:30.042Z,5.14
2019-03-15T02:05:01.732Z,5.18
2019-03-15T02:07:34.619Z,5.16
2019-03-15T02:10:07.310Z,5.12
2019-03-15T02:12:39.131Z,5.20
2019-03-15T02:15:10.931Z,5.13
2019-03-15T02:17:42.513Z,5.07
2019-03-15T02:20:14.820Z,5.11
2019-03-15T02:22:46.308Z,5.04
2019-03-15T02:25:17.787Z,5.01
2019-03-15T02:27:49.372Z,5.03
2019-03-15T02:30:21.131Z,5.05
2019-03-15T02:32:52.536Z,4.98
2019-03-15T02:35:24.086Z,5.02
2019-03-15T02:37:56.859Z,5.07
2019-03-15T02:40:28.358Z,5.01
2019-03-15T02:42:59.718Z,5.00
2019-03-15T02:45:31.202Z,5.02
2019-03-15T02:48:02.839Z,5.01
2019-03-15T02:50:34.336Z,5.03
2019-03-15T02:53:06.110Z,5.04
2019-03-15T02:55:38.007Z,5.08
2019-03-15T02:58:09.681Z,5.06
2019-03-15T03:00:41.319Z,5.13
2019-03-15T03:03:14.016Z,5.07
2019-03-15T03:05:45.417Z,5.09
2019-03-15T03:08:16.880Z,5.04
2019-03-15T03:10:48.431Z,5.04
2019-03-15T03:13:20.083Z,5.01
2019-03-15T03:15:52.137Z,4.98
2019-03-15T03:18:23.923Z,5.01
2019-03-15T03:20:55.420Z,4.95
2019-03-15T03:23:27.088Z,4.97
2019-03-15T03:25:58.836Z,5.03
2019-03-15T03:28:30.562Z,5.03
2019-03-15T03:31:01.941Z,5.04
2019-03-15T03:33:33.804Z,5.03
2019-03-15T03:36:05.860Z,5.08
2019-03-15T03:38:37.351Z,4.98
2019-03-15T03:41:08.717Z,5.01
2019-03-15T03:43:40.524Z,5.04
2019-03-15T03:46:12.025Z,5.04
2019-03-15T03:48:43.825Z,5.05
2019-03-15T03:51:15.454Z,5.06
2019-03-15T03:53:46.887Z,5.04
2019-03-15T03:56:18.355Z,5.09
2019-03-15T03:58:50.096Z,5.06
2019-03-15T04:01:21.825Z,5.04
2019-03-15T04:03:53.474Z,5.05
2019-03-15T04:06:25.083Z,5.07
2019-03-15T04:08:56.739Z,5.11
2019-03-15T04:11:28.239Z,5.14
2019-03-15T04:14:02.201Z,5.12
2019-03-15T04:16:33.909Z,5.12
2019-03-15T04:19:05.715Z,5.11
2019-03-15T04:21:37.272Z,5.12
2019-03-15T04:24:10.312Z,5.11
2019-03-15T04:26:41.854Z,5.13
2019-03-15T04:29:13.648Z,5.14
2019-03-15T04:31:45.320Z,5.10
2019-03-15T04:34:16.698Z,5.10
2019-03-15T04:36:48.243Z,5.13
2019-03-15T04:39:20.211Z,5.14
2019-03-15T04:41:52.034Z,5.17
2019-03-15T04:44:23.501Z,5.19
2019-03-15T04:46:55.764Z,5.14
2019-03-15T04:49:27.547Z,5.19
2019-03-15T04:51:59.035Z,5.22
2019-03-15T04:54:30.802Z,5.21
2019-03-15T04:57:02.397Z,5.19
2019-03-15T04:59:33.788Z,5.20
2019-03-15T05:02:05.859Z,5.24
2019-03-15T05:04:37.401Z,5.21
2019-03-15T05:07:08.873Z,5.21
2019-03-15T05:09:40.325Z,5.19
2019-03-15T05:12:11.935Z,5.19
2019-03-15T05:14:43.662Z,5.21
2019-03-15T05:17:15.071Z,5.21
2019-03-15T05:19:46.602Z,5.20
2019-03-15T05:22:18.098Z,5.20
2019-03-15T05:24:50.382Z,5.18
2019-03-15T05:27:21.852Z,5.17
2019-03-15T05:29:53.479Z,5.19
2019-03-15T05:32:25.226Z,5.18
2019-03-15T05:34:56.985Z,5.20
2019-03-15T05:37:28.385Z,5.20
2019-03-15T05:39:59.844Z,5.19
2019-03-15T05:42:31.529Z,5.16
2019-03-15T05:45:03.066Z,5.16
2019-03-15T05:47:34.634Z,5.16
2019-03-15T05:50:07.600Z,5.15
2019-03-15T05:52:40.204Z,5.15
2019-03-15T05:55:12.513Z,5.16
2019-03-15T05:57:45.327Z,5.14
2019-03-15T06:00:16.769Z,5.13
2019-03-15T06:02:48.322Z,5.14
2019-03-15T06:05:19.740Z,5.15
2019-03-15T06:07:51.328Z,5.15
2019-03-15T06:10:22.858Z,5.09
2019-03-15T06:12:54.303Z,5.11
2019-03-15T06:15:25.860Z,5.15
2019-03-15T06:17:57.394Z,5.14
2019-03-15T06:20:29.170Z,5.13
2019-03-15T06:23:00.478Z,5.18
2019-03-15T06:25:31.904Z,5.19
2019-03-15T06:28:03.385Z,5.22
2019-03-15T06:30:34.976Z,5.17
2019-03-15T06:33:06.541Z,5.22
2019-03-15T06:35:38.292Z,5.28
2019-03-15T06:38:09.769Z,5.33
2019-03-15T06:40:41.199Z,5.36
2019-03-15T06:43:13.517Z,5.34
2019-03-15T06:45:45.251Z,5.31
2019-03-15T06:48:16.870Z,5.37
2019-03-15T06:50:48.363Z,5.35
2019-03-15T06:53:19.982Z,5.39
2019-03-15T06:55:51.487Z,5.48
2019-03-15T06:58:23.011Z,5.57
2019-03-15T07:00:55.025Z,5.56
2019-03-15T07:03:26.803Z,5.59
2019-03-15T07:06:00.121Z,5.56
2019-03-15T07:08:31.950Z,5.48
2019-03-15T07:11:03.459Z,5.55
2019-03-15T07:13:35.368Z,5.61
2019-03-15T07:16:07.010Z,5.67
2019-03-15T07:18:38.953Z,5.73
2019-03-15T07:21:10.412Z,5.73
2019-03-15T07:23:41.665Z,5.75
2019-03-15T07:26:13.359Z,5.83
2019-03-15T07:28:44.945Z,5.88
2019-03-15T07:31:16.369Z,5.95
2019-03-15T07:33:49.221Z,5.91
2019-03-15T07:36:21.101Z,5.88
2019-03-15T07:38:52.799Z,5.95
2019-03-15T07:41:25.402Z,5.97
2019-03-15T07:43:57.257Z,5.98
2019-03-15T07:46:28.656Z,6.03
2019-03-15T07:49:00.223Z,6.37
2019-03-15T07:51:31.731Z,6.54
2019-03-15T07:54:03.174Z,6.60
2019-03-15T07:56:34.642Z,6.46
2019-03-15T07:59:06.247Z,6.42
2019-03-15T08:01:37.804Z,6.45
2019-03-15T08:04:16.894Z,6.53
2019-03-15T08:06:43.935Z,6.39
2019-03-15T08:09:15.509Z,6.49
2019-03-15T08:11:47.546Z,6.65
2019-03-15T08:14:19.245Z,6.62
2019-03-15T08:16:50.691Z,6.63
2019-03-15T08:19:23.171Z,6.67
2019-03-15T08:21:56.654Z,6.71
2019-03-15T08:24:28.119Z,6.78
2019-03-15T08:26:59.498Z,6.78
2019-03-15T08:29:31.008Z,6.76
2019-03-15T08:32:02.764Z,6.82
2019-03-15T08:34:34.324Z,6.90
2019-03-15T08:37:07.425Z,6.91
2019-03-15T08:39:39.160Z,6.96
2019-03-15T08:42:10.620Z,7.01
2019-03-15T08:44:42.788Z,7.30
2019-03-15T08:47:14.355Z,7.44
2019-03-15T08:49:46.307Z,7.34
2019-03-15T08:52:17.897Z,7.15
2019-03-15T08:54:49.241Z,7.18
2019-03-15T08:57:20.900Z,7.13
2019-03-15T08:59:57.223Z,7.14
2019-03-15T09:02:25.540Z,7.20
2019-03-15T09:04:57.327Z,7.30
2019-03-15T09:07:28.784Z,7.32
2019-03-15T09:10:03.258Z,7.40
2019-03-15T09:12:33.824Z,7.97
2019-03-15T09:15:05.590Z,7.79
2019-03-15T09:17:37.440Z,7.69
2019-03-15T09:20:10.073Z,7.64
2019-03-15T09:22:42.032Z,7.61
2019-03-15T09:25:19.377Z,7.64
2019-03-15T09:27:47.059Z,7.76
2019-03-15T09:30:23.519Z,7.86
2019-03-15T09:32:52.021Z,7.92
2019-03-15T09:35:23.562Z,7.96
2019-03-15T09:37:55.295Z,7.88
2019-03-15T09:40:27.751Z,7.69
2019-03-15T09:43:00.043Z,7.79
2019-03-15T09:45:33.994Z,7.88
2019-03-15T09:48:06.165Z,7.81
2019-03-15T09:50:50.683Z,7.67
2019-03-15T09:53:11.377Z,7.68
2019-03-15T09:55:43.027Z,7.69
2019-03-15T09:58:14.639Z,7.68
2019-03-15T10:00:46.296Z,7.59
2019-03-15T10:03:22.219Z,7.56
2019-03-15T10:05:49.823Z,7.49
2019-03-15T10:08:23.528Z,7.52
2019-03-15T10:10:54.439Z,7.59
2019-03-15T10:13:25.780Z,7.58
2019-03-15T10:15:57.230Z,7.51
2019-03-15T10:18:28.627Z,7.45
2019-03-15T10:21:00.049Z,7.38
2019-03-15T10:23:31.511Z,7.47
2019-03-15T10:26:03.040Z,7.42
2019-03-15T10:28:34.441Z,7.46
2019-03-15T10:31:05.907Z,7.48
2019-03-15T10:33:49.905Z,7.58
2019-03-15T10:36:10.937Z,7.66
2019-03-15T10:38:42.285Z,7.53
2019-03-15T10:41:13.769Z,7.48
2019-03-15T10:43:45.156Z,7.62
2019-03-15T10:46:16.925Z,7.79
2019-03-15T10:48:48.403Z,7.92
2019-03-15T10:51:19.992Z,8.22
2019-03-15T10:53:54.885Z,8.30
2019-03-15T10:56:25.876Z,8.23
2019-03-15T10:58:59.220Z,8.25
2019-03-15T11:01:30.975Z,8.35
2019-03-15T11:04:02.770Z,8.35
2019-03-15T11:06:34.501Z,8.32
2019-03-15T11:09:07.398Z,8.38
2019-03-15T11:11:38.836Z,8.29
2019-03-15T11:14:10.397Z,8.25
2019-03-15T11:16:42.058Z,8.27
2019-03-15T11:19:15.619Z,8.23
2019-03-15T11:21:47.054Z,8.01
2019-03-15T11:24:18.971Z,8.04
2019-03-15T11:26:50.305Z,8.84
2019-03-15T11:29:22.297Z,8.95
2019-03-15T11:31:53.636Z,8.93
2019-03-15T11:34:25.095Z,9.34
2019-03-15T11:36:58.538Z,8.97
2019-03-15T11:39:30.155Z,8.88
2019-03-15T11:42:01.924Z,8.74
2019-03-15T11:44:33.568Z,8.79
2019-03-15T11:47:05.717Z,8.46
2019-03-15T11:49:37.666Z,8.42
2019-03-15T11:52:09.307Z,8.64
2019-03-15T11:54:41.088Z,8.49
2019-03-15T11:57:12.467Z,8.34
2019-03-15T11:59:44.170Z,8.14
2019-03-15T12:02:15.973Z,8.05
2019-03-15T12:04:47.609Z,8.10
2019-03-15T12:07:19.148Z,8.11
2019-03-15T12:09:50.861Z,8.18
2019-03-15T12:12:22.622Z,8.30
2019-03-15T12:14:54.238Z,8.34
2019-03-15T12:17:25.659Z,8.27
2019-03-15T12:19:57.078Z,8.39
2019-03-15T12:22:29.725Z,8.40
2019-03-15T12:25:02.376Z,8.42
2019-03-15T12:27:34.050Z,8.27
2019-03-15T12:30:06.367Z,8.27
2019-03-15T12:32:37.880Z,8.25
2019-03-15T12:35:12.255Z,8.27
2019-03-15T12:37:45.270Z,8.27
2019-03-15T12:40:17.585Z,8.13
2019-03-15T12:42:49.015Z,8.06
2019-03-15T12:45:20.816Z,8.13
2019-03-15T12:47:52.468Z,8.23
2019-03-15T12:50:24.010Z,8.22
2019-03-15T12:52:55.556Z,8.10
2019-03-15T12:55:27.007Z,8.06
2019-03-15T12:57:58.717Z,8.03
2019-03-15T13:00:30.381Z,8.00
2019-03-15T13:03:02.188Z,8.12
2019-03-15T13:05:34.806Z,8.92
2019-03-15T13:08:06.524Z,9.56
2019-03-15T13:10:38.192Z,10.25
2019-03-15T13:13:10.000Z,10.19
2019-03-15T13:15:41.721Z,9.54
2019-03-15T13:18:13.324Z,9.09
2019-03-15T13:20:45.079Z,9.07
2019-03-15T13:23:16.744Z,8.88
2019-03-15T13:25:48.049Z,8.58
2019-03-15T13:28:19.637Z,8.35
2019-03-15T13:30:51.398Z,8.32
2019-03-15T13:33:23.153Z,8.29
2019-03-15T13:35:54.784Z,8.06
2019-03-15T13:38:26.655Z,7.89
2019-03-15T13:40:58.514Z,7.84
2019-03-15T13:43:29.908Z,7.89
2019-03-15T13:46:01.730Z,7.87
2019-03-15T13:48:34.032Z,8.02
2019-03-15T13:51:05.670Z,8.19
2019-03-15T13:53:38.100Z,8.37
2019-03-15T13:56:09.745Z,8.33
2019-03-15T13:58:41.387Z,8.27
2019-03-15T14:01:12.928Z,8.21
2019-03-15T14:03:44.535Z,8.26
2019-03-15T14:06:17.571Z,8.22
2019-03-15T14:08:50.760Z,8.23
2019-03-15T14:11:22.404Z,8.23
2019-03-15T14:13:54.216Z,8.22
2019-03-15T14:16:25.842Z,8.29
2019-03-15T14:18:57.355Z,8.29
2019-03-15T14:21:28.967Z,8.38
2019-03-15T14:24:00.565Z,8.47
2019-03-15T14:26:32.210Z,8.50
2019-03-15T14:29:03.808Z,8.59
2019-03-15T14:31:35.335Z,8.70
2019-03-15T14:34:07.013Z,8.70
2019-03-15T14:36:38.657Z,8.69
2019-03-15T14:39:10.278Z,8.80
2019-03-15T14:41:41.628Z,8.89
2019-03-15T14:44:13.219Z,8.91
2019-03-15T14:46:44.658Z,8.75
2019-03-15T14:49:16.364Z,8.62
2019-03-15T14:51:47.857Z,8.54
2019-03-15T14:54:20.901Z,8.48
2019-03-15T14:56:52.440Z,8.40
2019-03-15T14:59:23.839Z,8.44
2019-03-15T15:01:55.299Z,8.41
2019-03-15T15:04:29.053Z,8.38
2019-03-15T15:07:01.529Z,8.35
2019-03-15T15:09:33.099Z,8.34
2019-03-15T15:12:04.618Z,8.32
2019-03-15T15:14:36.215Z,8.33
2019-03-15T15:17:07.597Z,8.35
2019-03-15T15:19:39.196Z,8.32
2019-03-15T15:22:10.564Z,8.29
2019-03-15T15:24:42.163Z,8.30
2019-03-15T15:27:14.233Z,8.34
2019-03-15T15:29:45.849Z,8.39
2019-03-15T15:32:17.434Z,8.38
2019-03-15T15:34:49.133Z,8.37
2019-03-15T15:37:20.580Z,8.37
2019-03-15T15:39:52.252Z,8.35
2019-03-15T15:42:23.793Z,8.35
2019-03-15T15:44:55.383Z,8.33
2019-03-15T15:47:26.978Z,8.34
2019-03-15T15:49:58.675Z,8.39
2019-03-15T15:52:30.164Z,8.39
2019-03-15T15:55:01.789Z,8.45
2019-03-15T15:57:33.597Z,8.30
2019-03-15T16:00:05.776Z,8.25
2019-03-15T16:02:37.382Z,8.13
2019-03-15T16:05:09.310Z,8.09
2019-03-15T16:07:41.226Z,8.04
2019-03-15T16:10:12.806Z,8.00
2019-03-15T16:12:44.604Z,7.95
2019-03-15T16:15:17.811Z,7.92
2019-03-15T16:17:49.814Z,7.88
2019-03-15T16:20:21.846Z,7.86
2019-03-15T16:22:53.920Z,7.85
2019-03-15T16:25:25.609Z,7.82
2019-03-15T16:27:57.637Z,7.80
2019-03-15T16:30:29.592Z,7.82
2019-03-15T16:33:01.276Z,7.82
2019-03-15T16:35:32.966Z,7.78
2019-03-15T16:38:04.912Z,7.77
2019-03-15T16:40:36.847Z,7.74
2019-03-15T16:43:08.552Z,7.76
2019-03-15T16:45:40.280Z,7.78
2019-03-15T16:48:11.953Z,7.74
2019-03-15T16:50:43.572Z,7.71
2019-03-15T16:53:15.055Z,7.72
2019-03-15T16:55:46.864Z,7.69
2019-03-15T16:58:19.341Z,7.66
2019-03-15T17:00:51.250Z,7.64
2019-03-15T17:03:22.571Z,7.62
2019-03-15T17:05:54.158Z,7.62
2019-03-15T17:08:25.551Z,7.57
2019-03-15T17:10:57.196Z,7.50
2019-03-15T17:13:28.633Z,7.39
2019-03-15T17:16:00.942Z,7.30
2019-03-15T17:18:33.703Z,7.22
2019-03-15T17:21:05.294Z,7.18
2019-03-15T17:23:38.235Z,7.16
2019-03-15T17:26:09.878Z,7.14
2019-03-15T17:28:41.561Z,7.14
2019-03-15T17:31:13.371Z,7.13
2019-03-15T17:33:44.789Z,7.21
2019-03-15T17:36:16.782Z,7.20
2019-03-15T17:38:48.471Z,7.17
2019-03-15T17:41:20.035Z,7.21
2019-03-15T17:43:51.642Z,7.30
2019-03-15T17:46:23.216Z,7.37
2019-03-15T17:48:54.682Z,7.38
2019-03-15T17:51:26.243Z,7.37
2019-03-15T17:53:57.982Z,7.34
2019-03-15T17:56:29.401Z,7.32
2019-03-15T17:59:11.900Z,7.28
2019-03-15T18:01:34.131Z,7.27
2019-03-15T18:04:05.850Z,7.23
2019-03-15T18:06:37.727Z,7.19
2019-03-15T18:09:09.580Z,7.17
2019-03-15T18:11:41.316Z,7.18
2019-03-15T18:14:12.813Z,7.13
2019-03-15T18:16:44.550Z,7.07
2019-03-15T18:19:16.302Z,6.99
2019-03-15T18:21:48.139Z,6.93
2019-03-15T18:24:19.578Z,6.85
2019-03-15T18:26:51.337Z,6.81
2019-03-15T18:29:26.584Z,6.80
2019-03-15T18:31:56.127Z,6.76
2019-03-15T18:34:27.851Z,6.74
2019-03-15T18:37:00.492Z,6.75
2019-03-15T18:39:32.558Z,6.68
2019-03-15T18:42:04.065Z,6.67
2019-03-15T18:44:34.324Z,6.65
2019-03-15T18:47:04.734Z,6.66
2019-03-15T18:49:34.957Z,6.65
2019-03-15T18:52:05.247Z,6.65
2019-03-15T18:54:37.932Z,6.64
2019-03-15T18:57:08.432Z,6.65
2019-03-15T18:59:40.226Z,6.63
2019-03-15T19:02:10.714Z,6.62
2019-03-15T19:04:40.822Z,6.62
2019-03-15T19:07:11.037Z,6.59
2019-03-15T19:09:41.507Z,6.65
2019-03-15T19:12:11.648Z,6.71
2019-03-15T19:14:41.923Z,6.67
2019-03-15T19:17:12.260Z,6.74
2019-03-15T19:19:43.533Z,6.84
2019-03-15T19:22:13.977Z,6.85
2019-03-15T19:24:44.344Z,6.92
2019-03-15T19:27:14.695Z,6.89
2019-03-15T19:29:53.655Z,6.97
2019-03-15T19:32:16.983Z,6.98
2019-03-15T19:34:47.643Z,6.91
2019-03-15T19:37:18.223Z,6.90
2019-03-15T19:39:48.511Z,6.89
2019-03-15T19:42:19.105Z,6.93
2019-03-15T19:44:49.291Z,7.00
2019-03-15T19:47:19.696Z,7.11
2019-03-15T19:49:50.103Z,7.07
2019-03-15T19:52:20.269Z,7.12
2019-03-15T19:54:59.887Z,7.09
2019-03-15T19:57:22.246Z,7.15
2019-03-15T19:59:52.519Z,7.18
2019-03-15T20:02:22.771Z,7.28
2019-03-15T20:04:53.155Z,7.24
2019-03-15T20:07:23.603Z,7.32
2019-03-15T20:09:53.805Z,7.30
2019-03-15T20:12:23.971Z,7.35
2019-03-15T20:14:55.335Z,7.34
2019-03-15T20:17:25.809Z,7.26
2019-03-15T20:19:56.134Z,7.23
2019-03-15T20:22:26.355Z,7.27
2019-03-15T20:24:56.567Z,7.25
2019-03-15T20:27:26.803Z,7.20
2019-03-15T20:29:57.165Z,7.20
2019-03-15T20:32:27.684Z,7.23
2019-03-15T20:34:57.871Z,7.20
2019-03-15T20:37:28.225Z,7.26
2019-03-15T20:39:58.466Z,7.29
2019-03-15T20:42:28.795Z,7.40
2019-03-15T20:44:58.936Z,7.40
2019-03-15T20:47:29.289Z,7.40
2019-03-15T20:50:00.086Z,7.39
2019-03-15T20:52:30.713Z,7.37
2019-03-15T20:55:00.894Z,7.43
2019-03-15T20:57:31.256Z,7.46
2019-03-15T21:00:04.957Z,7.45
2019-03-15T21:02:36.881Z,7.41
2019-03-15T21:05:08.157Z,7.40
2019-03-15T21:07:38.547Z,7.36
2019-03-15T21:10:09.295Z,7.29
2019-03-15T21:12:39.462Z,7.36
2019-03-15T21:15:10.124Z,7.37
2019-03-15T21:17:40.522Z,7.43
2019-03-15T21:20:11.175Z,7.33
2019-03-15T21:22:41.508Z,7.36
2019-03-15T21:25:11.916Z,7.37
2019-03-15T21:27:52.885Z,7.38
2019-03-15T21:30:15.215Z,7.38
2019-03-15T21:32:45.702Z,7.39
2019-03-15T21:35:15.985Z,7.38
2019-03-15T21:37:46.566Z,7.51
2019-03-15T21:40:16.831Z,7.43
2019-03-15T21:42:47.102Z,7.38
2019-03-15T21:45:17.459Z,7.32
2019-03-15T21:47:47.617Z,7.30
2019-03-15T21:50:17.794Z,7.20
2019-03-15T21:52:48.385Z,7.09
2019-03-15T21:55:18.894Z,7.01
2019-03-15T21:57:49.066Z,6.98
2019-03-15T22:00:20.726Z,6.89
2019-03-15T22:02:51.543Z,6.80
2019-03-15T22:05:22.901Z,6.75
2019-03-15T22:07:54.575Z,6.74
2019-03-15T22:10:24.847Z,6.77
2019-03-15T22:12:55.257Z,6.81
2019-03-15T22:15:25.548Z,6.83
2019-03-15T22:17:56.075Z,6.89
2019-03-15T22:20:26.552Z,6.89
2019-03-15T22:22:56.819Z,6.96
2019-03-15T22:25:27.204Z,6.97
2019-03-15T22:27:57.423Z,6.85
2019-03-15T22:30:27.602Z,6.88
2019-03-15T22:32:59.144Z,6.93
2019-03-15T22:35:29.748Z,7.04
2019-03-15T22:38:00.241Z,7.02
2019-03-15T22:40:30.712Z,6.96
2019-03-15T22:43:01.010Z,6.98
2019-03-15T22:45:31.462Z,6.96
2019-03-15T22:48:02.076Z,6.89
2019-03-15T22:50:32.384Z,6.84
2019-03-15T22:53:02.954Z,6.78
2019-03-15T22:55:33.079Z,6.80
2019-03-15T22:58:03.282Z,6.85
2019-03-15T23:00:37.868Z,6.90
2019-03-15T23:03:09.073Z,6.88
2019-03-15T23:05:39.149Z,6.89
2019-03-15T23:08:09.412Z,6.97
2019-03-15T23:10:39.708Z,6.99
2019-03-15T23:13:10.031Z,7.00
2019-03-15T23:15:40.395Z,7.08
2019-03-15T23:18:10.778Z,7.07
2019-03-15T23:20:41.345Z,7.07
2019-03-15T23:23:23.257Z,7.05
2019-03-15T23:25:43.729Z,7.03
2019-03-15T23:28:14.202Z,7.00
2019-03-15T23:30:44.484Z,6.93
2019-03-15T23:33:14.611Z,6.98
2019-03-15T23:35:53.870Z,7.04
2019-03-15T23:38:18.595Z,7.02
2019-03-15T23:40:48.858Z,7.03
2019-03-15T23:43:19.438Z,7.07
2019-03-15T23:45:49.665Z,7.02
2019-03-15T23:48:21.430Z,7.03
2019-03-15T23:50:51.743Z,6.96
2019-03-15T23:53:22.733Z,6.93
2019-03-15T23:55:54.931Z,6.80
2019-03-15T23:58:25.223Z,6.70
